This is the latest recevied weather packets stored in our database for station/object IZ4UFQ-10. If no packets are shown the sender has not sent any weather packets the latest 1 day(s).
| Time | Temp. | Humidity | Pressure | Rain* | Wind** | Luminosity | Snow |
|---|---|---|---|---|---|---|---|
| 1778077375 | 18.89° C | 78% | 1008.2 hPa | 0 mm | - | 302 W/m² | - |
| 1778076774 | 18.33° C | 78% | 1008.1 hPa | 0 mm | - | 301 W/m² | - |
| 1778076174 | 18.33° C | 79% | 1008.2 hPa | 0 mm | - | 285 W/m² | - |
| 1778075273 | 17.78° C | 83% | 1008.5 hPa | 0 mm | - | 343 W/m² | - |
| 1778074372 | 17.78° C | 84% | 1008.8 hPa | 0 mm | - | 492 W/m² | - |
| 1778074072 | 17.78° C | 84% | 1009 hPa | 0 mm | - | 468 W/m² | - |
| 1778073471 | 17.78° C | 83% | 1008.9 hPa | 0 mm | - | 248 W/m² | - |
| 1778073171 | 17.78° C | 83% | 1009 hPa | 0.25 mm | - | 223 W/m² | - |
| 1778072871 | 17.78° C | 84% | 1009.2 hPa | 0.51 mm | - | 169 W/m² | - |
| 1778072270 | 17.22° C | 84% | 1009.3 hPa | 0.76 mm | - | 255 W/m² | - |
| 1778071069 | 17.22° C | 85% | 1009.3 hPa | 0.76 mm | - | 158 W/m² | - |
| 1778070168 | 18.33° C | 85% | 1009 hPa | 0.76 mm | - | 272 W/m² | - |
| 1778069868 | 18.33° C | 84% | 1008.9 hPa | 0.76 mm | - | 193 W/m² | - |
| 1778069267 | 19.44° C | 82% | 1009.2 hPa | 0.25 mm | - | 169 W/m² | - |
| 1778068967 | 19.44° C | 80% | 1009.2 hPa | 0 mm | - | 130 W/m² | - |
| 1778068066 | 20° C | 74% | 1008.8 hPa | 0 mm | - | 399 W/m² | - |
| 1778066865 | 20° C | 71% | 1008.7 hPa | 0 mm | - | 323 W/m² | - |
| 1778066264 | 20° C | 70% | 1008.8 hPa | 0 mm | - | 364 W/m² | - |
| 1778065063 | 19.44° C | 75% | 1008.8 hPa | 0 mm | - | 1111 W/m² | - |
| 1778064763 | 19.44° C | 79% | 1008.9 hPa | 0 mm | - | 1097 W/m² | - |
| 1778064162 | 18.33° C | 88% | 1008.9 hPa | 0 mm | - | 763 W/m² | - |
| 1778063862 | 17.78° C | 89% | 1008.9 hPa | 0 mm | - | 828 W/m² | - |
| 1778062961 | 17.22° C | 95% | 1009 hPa | 0 mm | - | 1081 W/m² | - |
| 1778062661 | 17.22° C | 95% | 1008.9 hPa | 0 mm | - | 1104 W/m² | - |
| 1778062060 | 16.67° C | 96% | 1009.2 hPa | 0 mm | - | 995 W/m² | - |
* Rain latest hour (hover to see other rain measurements)
** Current wind speed in m/s (hover to see current wind gust speed)